Brightwood, North Carolina
Current Conditions -  °F | °C
As of 6:54 PM on Saturday 22 Nov 2014 (Local Time) from KBUY Reporting Station
Clear Clear  
Wind Chill: 39°   Ceiling: Unl
Heat Index: 39°   Visibility: 10mi
Dew Point: 20°   Wind: 3mph
Humidity: 46%   Direction: 150°SSE
Pressure: 30.34"   Gusts: NA
Location:  36.2136°N, 79.6775°W
Report Text: KBUY 222354Z AUTO 15003KT 10SM CLR 04/M07 A3034 RMK AO2 SLP280 T00391067 10117 20039 56015
Loading
Personal Weather Stations






























Interactive Weather Map New forecast layout! Learn more

10-Day Weather Forecast

Advertisements
Track Severe Weather on mobile